createdAt,value
2022-11-11T00:01:32.715Z,102660.75
2022-11-11T00:04:18.463Z,102651.28
2022-11-11T00:07:04.440Z,102669.88
2022-11-11T00:09:49.950Z,102660.38
2022-11-11T00:12:35.292Z,102660.81
2022-11-11T00:15:20.976Z,102660.94
2022-11-11T00:18:25.745Z,102653.81
2022-11-11T00:21:33.113Z,102671.56
2022-11-11T00:24:53.030Z,102662.19
2022-11-11T00:27:39.562Z,102667.41
2022-11-11T00:30:25.154Z,102672.41
2022-11-11T00:33:13.284Z,102669.22
2022-11-11T00:35:59.065Z,102669.38
2022-11-11T00:38:47.260Z,102660.72
2022-11-11T00:41:35.917Z,102670.06
2022-11-11T00:44:21.456Z,102667.31
2022-11-11T00:47:25.814Z,102672.69
2022-11-11T00:50:39.298Z,102688.38
2022-11-11T00:53:28.581Z,102689.75
2022-11-11T00:56:18.494Z,102679.16
2022-11-11T00:59:08.630Z,102679.44
2022-11-11T01:01:54.223Z,102693.47
2022-11-11T01:04:40.196Z,102695.94
2022-11-11T01:07:25.521Z,102690.47
2022-11-11T01:10:11.636Z,102697.75
2022-11-11T01:13:12.306Z,102699.53
2022-11-11T01:16:18.347Z,102703.69
2022-11-11T01:19:07.106Z,102708.47
2022-11-11T01:21:52.491Z,102698.44
2022-11-11T01:24:39.098Z,102694.44
2022-11-11T01:27:27.640Z,102683.28
2022-11-11T01:30:14.298Z,102690.47
2022-11-11T01:33:00.783Z,102678.06
2022-11-11T01:35:47.774Z,102680.13
2022-11-11T01:38:33.791Z,102672.97
2022-11-11T01:41:35.051Z,102663.84
2022-11-11T01:44:46.348Z,102670.06
2022-11-11T01:48:21.738Z,102678.34
2022-11-11T01:50:58.960Z,102671.44
2022-11-11T01:53:46.340Z,102672.69
2022-11-11T01:56:37.595Z,102683.47
2022-11-11T01:59:24.393Z,102682.75
2022-11-11T02:02:38.664Z,102664.00
2022-11-11T02:05:45.526Z,102659.19
2022-11-11T02:08:39.210Z,102660.28
2022-11-11T02:11:44.495Z,102662.22
2022-11-11T02:14:36.001Z,102662.91
2022-11-11T02:17:21.811Z,102650.78
2022-11-11T02:20:11.151Z,102671.59
2022-11-11T02:23:04.949Z,102668.13
2022-11-11T02:25:53.860Z,102653.41
2022-11-11T02:28:39.934Z,102673.34
2022-11-11T02:31:29.721Z,102671.97
2022-11-11T02:34:15.300Z,102666.06
2022-11-11T02:37:06.444Z,102664.28
2022-11-11T02:40:06.032Z,102651.31
2022-11-11T02:42:54.244Z,102664.13
2022-11-11T02:45:39.965Z,102666.88
2022-11-11T02:48:26.810Z,102637.81
2022-11-11T02:51:12.495Z,102634.25
2022-11-11T02:54:03.442Z,102645.41
2022-11-11T02:57:07.596Z,102648.03
2022-11-11T02:59:53.554Z,102648.59
2022-11-11T03:02:38.948Z,102651.19
2022-11-11T03:05:24.751Z,102636.84
2022-11-11T03:08:10.745Z,102636.19
2022-11-11T03:10:57.173Z,102634.91
2022-11-11T03:13:42.819Z,102647.59
2022-11-11T03:16:46.375Z,102643.31
2022-11-11T03:19:31.809Z,102634.91
2022-11-11T03:25:38.796Z,102644.13
2022-11-11T03:28:26.378Z,102639.16
2022-11-11T03:31:14.638Z,102647.03
2022-11-11T03:34:18.492Z,102636.41
2022-11-11T03:37:28.792Z,102646.59
2022-11-11T03:40:14.585Z,102638.84
2022-11-11T03:43:04.141Z,102641.44
2022-11-11T03:45:56.111Z,102626.84
2022-11-11T03:48:41.870Z,102653.56
2022-11-11T03:51:27.373Z,102647.09
2022-11-11T03:54:13.492Z,102630.03
2022-11-11T03:57:19.030Z,102640.47
2022-11-11T04:00:13.435Z,102639.91
2022-11-11T04:03:29.608Z,102649.94
2022-11-11T04:06:33.758Z,102640.75
2022-11-11T04:09:37.766Z,102646.13
2022-11-11T04:12:24.103Z,102658.09
2022-11-11T04:15:28.824Z,102674.31
2022-11-11T04:18:14.458Z,102664.13
2022-11-11T04:21:18.625Z,102678.00
2022-11-11T04:24:24.775Z,102662.69
2022-11-11T04:27:13.389Z,102664.34
2022-11-11T04:29:59.333Z,102674.16
2022-11-11T04:32:47.701Z,102654.19
2022-11-11T04:35:33.234Z,102666.97
2022-11-11T04:38:37.475Z,102660.97
2022-11-11T04:41:25.750Z,102655.97
2022-11-11T04:44:32.183Z,102656.25
2022-11-11T04:47:17.466Z,102649.25
2022-11-11T04:50:07.137Z,102667.72
2022-11-11T04:52:54.618Z,102664.84
2022-11-11T04:56:00.194Z,102652.25
2022-11-11T04:58:46.788Z,102657.91
2022-11-11T05:01:50.841Z,102660.06
2022-11-11T05:04:36.422Z,102663.91
2022-11-11T05:07:40.297Z,102648.75
2022-11-11T05:10:25.684Z,102664.34
2022-11-11T05:13:32.070Z,102678.66
2022-11-11T05:16:43.781Z,102662.25
2022-11-11T05:19:47.775Z,102675.47
2022-11-11T05:22:41.154Z,102669.13
2022-11-11T05:25:26.837Z,102658.38
2022-11-11T05:28:12.283Z,102670.53
2022-11-11T05:30:57.850Z,102669.13
2022-11-11T05:33:43.224Z,102677.31
2022-11-11T05:36:29.048Z,102681.91
2022-11-11T05:39:14.624Z,102670.34
2022-11-11T05:42:00.037Z,102676.00
2022-11-11T05:44:48.947Z,102651.19
2022-11-11T05:47:34.606Z,102663.00
2022-11-11T05:50:19.654Z,102664.09
2022-11-11T05:53:05.301Z,102666.69
2022-11-11T05:55:53.437Z,102659.50
2022-11-11T05:58:39.021Z,102679.50
2022-11-11T06:01:26.929Z,102669.13
2022-11-11T06:04:17.713Z,102661.91
2022-11-11T06:07:04.787Z,102670.66
2022-11-11T06:09:50.665Z,102686.53
2022-11-11T06:13:02.403Z,102673.25
2022-11-11T06:15:48.335Z,102666.84
2022-11-11T06:18:34.406Z,102666.63
2022-11-11T06:21:20.224Z,102673.28
2022-11-11T06:24:05.950Z,102673.50
2022-11-11T06:26:51.232Z,102672.59
2022-11-11T06:29:37.132Z,102682.78
2022-11-11T06:32:26.041Z,102673.91
2022-11-11T06:35:13.130Z,102697.69
2022-11-11T06:37:58.678Z,102686.78
2022-11-11T06:40:44.766Z,102691.84
2022-11-11T06:43:30.957Z,102698.66
2022-11-11T06:46:24.809Z,102693.53
2022-11-11T06:49:13.426Z,102704.09
2022-11-11T06:52:05.808Z,102695.56
2022-11-11T06:54:51.899Z,102699.81
2022-11-11T06:57:40.372Z,102683.34
2022-11-11T07:00:25.449Z,102702.31
2022-11-11T07:03:25.280Z,102706.50
2022-11-11T07:06:11.764Z,102699.50
2022-11-11T07:08:57.020Z,102696.06
2022-11-11T07:11:42.714Z,102690.53
2022-11-11T07:14:28.231Z,102681.78
2022-11-11T07:17:13.965Z,102718.97
2022-11-11T07:19:59.515Z,102726.22
2022-11-11T07:22:44.974Z,102708.00
2022-11-11T07:25:33.092Z,102706.75
2022-11-11T07:28:19.133Z,102717.66
2022-11-11T07:31:04.744Z,102734.22
2022-11-11T07:33:50.264Z,102746.75
2022-11-11T07:36:36.583Z,102731.34
2022-11-11T07:39:25.550Z,102737.22
2022-11-11T07:42:30.235Z,102734.91
2022-11-11T07:45:17.037Z,102756.25
2022-11-11T07:48:02.442Z,102756.16
2022-11-11T07:50:48.451Z,102772.97
2022-11-11T07:53:34.181Z,102761.13
2022-11-11T07:56:23.167Z,102781.97
2022-11-11T07:59:08.531Z,102770.72
2022-11-11T08:01:54.015Z,102790.50
2022-11-11T08:04:42.809Z,102794.91
2022-11-11T08:07:28.474Z,102780.34
2022-11-11T08:10:13.678Z,102799.97
2022-11-11T08:13:18.487Z,102788.06
2022-11-11T08:16:06.617Z,102808.53
2022-11-11T08:18:54.367Z,102795.63
2022-11-11T08:21:39.949Z,102795.09
2022-11-11T08:27:31.244Z,102800.78
2022-11-11T08:30:17.053Z,102804.69
2022-11-11T08:33:31.869Z,102807.75
2022-11-11T08:36:16.266Z,102816.38
2022-11-11T08:39:05.910Z,102832.38
2022-11-11T08:41:52.314Z,102814.72
2022-11-11T08:44:37.732Z,102828.56
2022-11-11T08:47:24.952Z,102823.72
2022-11-11T08:50:10.932Z,102831.34
2022-11-11T08:53:00.198Z,102836.59
2022-11-11T08:55:45.533Z,102829.06
2022-11-11T08:58:31.317Z,102831.50
2022-11-11T09:01:16.598Z,102837.31
2022-11-11T09:04:29.664Z,102845.03
2022-11-11T09:07:09.317Z,102828.28
2022-11-11T09:09:54.612Z,102823.63
2022-11-11T09:12:40.089Z,102833.53
2022-11-11T09:15:26.708Z,102840.97
2022-11-11T09:18:12.062Z,102827.06
2022-11-11T09:20:59.909Z,102828.28
2022-11-11T09:23:47.098Z,102837.44
2022-11-11T09:26:38.233Z,102837.69
2022-11-11T09:29:26.986Z,102831.28
2022-11-11T09:32:12.289Z,102845.66
2022-11-11T09:34:58.003Z,102848.22
2022-11-11T09:37:53.498Z,102846.75
2022-11-11T09:41:00.706Z,102845.53
2022-11-11T09:44:16.744Z,102837.94
2022-11-11T09:47:21.917Z,102848.66
2022-11-11T09:50:13.897Z,102841.16
2022-11-11T09:53:38.924Z,102854.97
2022-11-11T09:56:31.520Z,102851.41
2022-11-11T09:59:21.669Z,102840.63
2022-11-11T10:02:28.521Z,102849.47
2022-11-11T10:05:28.885Z,102845.22
2022-11-11T10:08:44.800Z,102869.34
2022-11-11T10:11:56.061Z,102865.59
2022-11-11T10:14:51.730Z,102874.53
2022-11-11T10:17:52.953Z,102876.09
2022-11-11T10:20:45.568Z,102849.59
2022-11-11T10:23:40.154Z,102845.97
2022-11-11T10:26:37.923Z,102862.44
2022-11-11T10:29:27.806Z,102869.31
2022-11-11T10:32:49.999Z,102864.66
2022-11-11T10:35:39.619Z,102857.91
2022-11-11T10:38:47.132Z,102865.88
2022-11-11T10:41:49.082Z,102864.19
2022-11-11T10:44:36.899Z,102872.19
2022-11-11T10:47:59.001Z,102870.88
2022-11-11T10:50:50.366Z,102849.34
2022-11-11T10:54:11.441Z,102868.16
2022-11-11T10:57:00.257Z,102864.06
2022-11-11T10:59:53.680Z,102866.16
2022-11-11T11:03:05.361Z,102872.66
2022-11-11T11:06:00.248Z,102870.88
2022-11-11T11:09:02.535Z,102856.13
2022-11-11T11:11:55.534Z,102864.13
2022-11-11T11:14:44.291Z,102842.44
2022-11-11T11:17:37.760Z,102834.19
2022-11-11T11:20:23.864Z,102840.38
2022-11-11T11:23:09.156Z,102838.16
2022-11-11T11:25:58.087Z,102840.22
2022-11-11T11:28:57.903Z,102829.41
2022-11-11T11:31:43.801Z,102833.94
2022-11-11T11:34:59.951Z,102828.84
2022-11-11T11:37:52.093Z,102845.03
2022-11-11T11:40:59.729Z,102854.38
2022-11-11T11:43:46.209Z,102837.38
2022-11-11T11:46:41.276Z,102822.34
2022-11-11T11:49:44.344Z,102839.31
2022-11-11T11:52:53.748Z,102844.38
2022-11-11T11:56:06.794Z,102819.28
2022-11-11T11:59:25.398Z,102843.16
2022-11-11T12:02:26.247Z,102843.44
2022-11-11T12:05:39.322Z,102841.53
2022-11-11T12:08:31.060Z,102838.66
2022-11-11T12:11:29.107Z,102841.59
2022-11-11T12:14:23.830Z,102840.31
2022-11-11T12:17:36.073Z,102830.13
2022-11-11T12:20:29.234Z,102810.22
2022-11-11T12:23:44.232Z,102819.06
2022-11-11T12:26:50.919Z,102825.16
2022-11-11T12:30:02.734Z,102796.56
2022-11-11T12:33:26.480Z,102820.81
2022-11-11T12:36:51.873Z,102813.72
2022-11-11T12:39:50.578Z,102816.28
2022-11-11T12:42:48.603Z,102817.88
2022-11-11T12:45:54.863Z,102794.00
2022-11-11T12:49:02.673Z,102821.56
2022-11-11T12:52:10.829Z,102818.59
2022-11-11T12:55:12.744Z,102821.94
2022-11-11T12:58:07.689Z,102812.38
2022-11-11T13:01:15.112Z,102814.25
2022-11-11T13:04:27.779Z,102802.19
2022-11-11T13:07:55.117Z,102814.78
2022-11-11T13:11:06.258Z,102819.41
2022-11-11T13:14:26.996Z,102814.63
2022-11-11T13:17:14.117Z,102786.88
2022-11-11T13:20:17.055Z,102794.66
2022-11-11T13:23:02.801Z,102782.16
2022-11-11T13:26:01.264Z,102801.28
2022-11-11T13:28:50.091Z,102792.19
2022-11-11T13:31:49.355Z,102806.09
2022-11-11T13:34:35.902Z,102800.16
2022-11-11T13:37:33.502Z,102800.31
2022-11-11T13:40:49.460Z,102790.94
2022-11-11T13:43:52.979Z,102800.06
2022-11-11T13:46:49.778Z,102791.44
2022-11-11T13:49:52.811Z,102791.81
2022-11-11T13:52:45.408Z,102797.06
2022-11-11T13:55:43.275Z,102795.50
2022-11-11T13:58:35.441Z,102792.06
2022-11-11T14:01:24.079Z,102790.34
2022-11-11T14:04:27.766Z,102773.69
2022-11-11T14:07:47.154Z,102792.28
2022-11-11T14:10:50.457Z,102793.41
2022-11-11T14:13:37.509Z,102796.19
2022-11-11T14:16:36.145Z,102801.13
2022-11-11T14:19:24.590Z,102797.84
2022-11-11T14:22:32.321Z,102784.38
2022-11-11T14:25:28.920Z,102791.53
2022-11-11T14:28:29.888Z,102792.22
2022-11-11T14:31:16.201Z,102788.25
2022-11-11T14:34:48.105Z,102763.41
2022-11-11T14:38:16.609Z,102781.03
2022-11-11T14:41:39.957Z,102780.03
2022-11-11T14:44:25.893Z,102781.78
2022-11-11T14:47:19.689Z,102774.63
2022-11-11T14:50:30.779Z,102775.06
2022-11-11T14:53:25.979Z,102771.94
2022-11-11T14:56:18.096Z,102780.63
2022-11-11T14:59:14.378Z,102765.38
2022-11-11T15:02:01.031Z,102767.38
2022-11-11T15:04:53.207Z,102772.75
2022-11-11T15:08:34.952Z,102786.31
2022-11-11T15:12:17.267Z,102769.13
2022-11-11T15:15:22.558Z,102784.00
2022-11-11T15:18:23.387Z,102775.38
2022-11-11T15:21:49.916Z,102780.63
2022-11-11T15:24:51.700Z,102766.19
2022-11-11T15:27:58.778Z,102769.22
2022-11-11T15:31:10.167Z,102786.59
2022-11-11T15:34:40.136Z,102781.94
2022-11-11T15:37:28.200Z,102781.69
2022-11-11T15:40:24.795Z,102776.16
2022-11-11T15:43:19.206Z,102785.53
2022-11-11T15:46:08.459Z,102781.97
2022-11-11T15:48:59.893Z,102788.28
2022-11-11T15:52:19.366Z,102786.91
2022-11-11T15:56:21.214Z,102778.75
2022-11-11T15:59:29.960Z,102804.53
2022-11-11T16:09:30.315Z,102784.03
2022-11-11T16:12:22.854Z,102784.09
2022-11-11T16:15:24.709Z,102791.91
2022-11-11T16:18:34.381Z,102787.56
2022-11-11T16:21:30.310Z,102779.97
2022-11-11T16:24:29.881Z,102785.56
2022-11-11T16:27:22.450Z,102809.09
2022-11-11T16:30:38.874Z,102818.00
2022-11-11T16:33:27.692Z,102812.78
2022-11-11T16:36:13.828Z,102795.06
2022-11-11T16:39:30.449Z,102815.53
2022-11-11T16:42:33.324Z,102815.34
2022-11-11T16:45:21.870Z,102818.72
2022-11-11T16:48:39.881Z,102803.09
2022-11-11T16:51:44.638Z,102803.28
2022-11-11T16:54:37.774Z,102815.84
2022-11-11T16:57:30.080Z,102815.16
2022-11-11T17:00:26.502Z,102821.75
2022-11-11T17:03:18.153Z,102798.31
2022-11-11T17:06:17.176Z,102831.94
2022-11-11T17:09:31.935Z,102823.59
2022-11-11T17:12:33.193Z,102807.50
2022-11-11T17:15:22.187Z,102807.75
2022-11-11T17:18:09.276Z,102831.38
2022-11-11T17:20:56.000Z,102838.13
2022-11-11T17:23:41.350Z,102826.19
2022-11-11T17:26:35.045Z,102823.19
2022-11-11T17:29:20.863Z,102829.47
2022-11-11T17:32:15.691Z,102840.19
2022-11-11T17:35:11.325Z,102821.91
2022-11-11T17:38:00.739Z,102821.34
2022-11-11T17:40:52.635Z,102834.63
2022-11-11T17:43:41.326Z,102828.81
2022-11-11T17:49:55.245Z,102825.75
2022-11-11T17:52:45.150Z,102815.81
2022-11-11T17:55:35.103Z,102828.00
2022-11-11T17:58:21.510Z,102835.81
2022-11-11T18:01:15.458Z,102832.88
2022-11-11T18:04:09.604Z,102825.16
2022-11-11T18:06:57.728Z,102828.25
2022-11-11T18:09:46.545Z,102817.81
2022-11-11T18:12:37.695Z,102828.47
2022-11-11T18:15:23.259Z,102833.19
2022-11-11T18:18:16.098Z,102838.88
2022-11-11T18:21:14.463Z,102819.06
2022-11-11T18:24:11.364Z,102818.44
2022-11-11T18:27:03.500Z,102841.31
2022-11-11T18:29:49.392Z,102835.94
2022-11-11T18:32:46.107Z,102827.88
2022-11-11T18:38:58.696Z,102825.22
2022-11-11T18:41:52.040Z,102829.66
2022-11-11T18:44:41.260Z,102827.44
2022-11-11T18:47:33.896Z,102822.22
2022-11-11T18:50:24.149Z,102832.66
2022-11-11T18:53:09.993Z,102835.00
2022-11-11T18:55:55.832Z,102825.03
2022-11-11T18:59:04.269Z,102813.28
2022-11-11T19:01:54.473Z,102827.13
2022-11-11T19:04:47.983Z,102833.28
2022-11-11T19:07:44.425Z,102806.25
2022-11-11T19:10:31.040Z,102824.19
2022-11-11T19:13:17.183Z,102805.81
2022-11-11T19:16:20.188Z,102824.47
2022-11-11T19:19:29.005Z,102833.00
2022-11-11T19:22:24.365Z,102818.06
2022-11-11T19:25:13.223Z,102811.09
2022-11-11T19:28:01.089Z,102806.44
2022-11-11T19:30:53.982Z,102805.00
2022-11-11T19:33:41.852Z,102823.94
2022-11-11T19:36:30.942Z,102817.75
2022-11-11T19:39:22.283Z,102830.75
2022-11-11T19:42:08.386Z,102844.25
2022-11-11T19:44:54.859Z,102841.47
2022-11-11T19:47:40.629Z,102839.16
2022-11-11T19:50:37.082Z,102853.09
2022-11-11T19:53:24.593Z,102851.91
2022-11-11T19:56:14.777Z,102840.69
2022-11-11T19:59:05.382Z,102841.03
2022-11-11T20:01:54.240Z,102853.59
2022-11-11T20:04:41.726Z,102838.13
2022-11-11T20:07:27.591Z,102846.97
2022-11-11T20:10:23.310Z,102853.94
2022-11-11T20:13:14.660Z,102874.19
2022-11-11T20:16:06.639Z,102860.06
2022-11-11T20:18:57.158Z,102872.44
2022-11-11T20:21:49.340Z,102871.50
2022-11-11T20:24:38.032Z,102876.72
2022-11-11T20:27:26.368Z,102892.31
2022-11-11T20:30:20.102Z,102883.34
2022-11-11T20:33:20.461Z,102885.75
2022-11-11T20:36:09.790Z,102887.00
2022-11-11T20:39:04.454Z,102883.13
2022-11-11T20:41:52.113Z,102878.78
2022-11-11T20:44:37.339Z,102899.47
2022-11-11T20:47:28.901Z,102907.66
2022-11-11T20:50:27.390Z,102902.06
2022-11-11T20:53:15.910Z,102895.00
2022-11-11T20:56:05.161Z,102917.00
2022-11-11T20:58:53.896Z,102896.19
2022-11-11T21:01:44.680Z,102888.72
2022-11-11T21:04:34.410Z,102909.53
2022-11-11T21:07:21.347Z,102918.47
2022-11-11T21:10:15.666Z,102926.97
2022-11-11T21:13:06.570Z,102908.88
2022-11-11T21:15:59.272Z,102910.53
2022-11-11T21:18:48.461Z,102926.75
2022-11-11T21:21:40.335Z,102918.91
2022-11-11T21:24:27.245Z,102912.66
2022-11-11T21:27:35.116Z,102907.88
2022-11-11T21:30:25.799Z,102894.75
2022-11-11T21:33:21.546Z,102897.69
2022-11-11T21:36:27.458Z,102903.06
2022-11-11T21:39:13.208Z,102936.75
2022-11-11T21:41:59.358Z,102917.63
2022-11-11T21:44:46.298Z,102903.56
2022-11-11T21:47:38.381Z,102920.22
2022-11-11T21:50:24.069Z,102933.94
2022-11-11T21:53:10.467Z,102931.03
2022-11-11T21:56:07.794Z,102926.25
2022-11-11T21:58:57.218Z,102919.25
2022-11-11T22:01:47.234Z,102920.59
2022-11-11T22:04:35.873Z,102937.09
2022-11-11T22:07:27.237Z,102943.97
2022-11-11T22:10:13.515Z,102918.19
2022-11-11T22:13:03.644Z,102939.59
2022-11-11T22:16:02.375Z,102914.88
2022-11-11T22:18:59.440Z,102917.19
2022-11-11T22:21:47.145Z,102905.13
2022-11-11T22:24:35.064Z,102934.84
2022-11-11T22:27:21.438Z,102926.44
2022-11-11T22:30:08.286Z,102919.34
2022-11-11T22:32:54.854Z,102932.09
2022-11-11T22:35:42.914Z,102948.34
2022-11-11T22:38:33.599Z,102943.44
2022-11-11T22:41:22.029Z,102939.13
2022-11-11T22:44:09.671Z,102944.47
2022-11-11T22:46:57.529Z,102932.94
2022-11-11T22:49:46.426Z,102950.13
2022-11-11T22:52:34.778Z,102932.75
2022-11-11T22:55:20.440Z,102958.09
2022-11-11T22:58:07.266Z,102962.94
2022-11-11T23:00:52.835Z,102958.78
2022-11-11T23:03:44.376Z,102963.66
2022-11-11T23:06:32.928Z,102937.19
2022-11-11T23:09:18.605Z,102942.75
2022-11-11T23:12:04.717Z,102949.31
2022-11-11T23:14:50.325Z,102958.97
2022-11-11T23:17:37.044Z,102955.34
2022-11-11T23:20:23.830Z,102933.31
2022-11-11T23:23:09.979Z,102932.75
2022-11-11T23:26:03.478Z,102946.00
2022-11-11T23:28:49.235Z,102933.59
2022-11-11T23:31:34.654Z,102935.34
2022-11-11T23:34:25.011Z,102925.31
2022-11-11T23:37:16.768Z,102922.69
2022-11-11T23:40:04.659Z,102929.69
2022-11-11T23:42:52.956Z,102921.41
2022-11-11T23:45:40.447Z,102929.84
2022-11-11T23:48:27.889Z,102916.69
2022-11-11T23:51:19.964Z,102909.81
2022-11-11T23:54:05.756Z,102917.50
2022-11-11T23:56:53.653Z,102930.06
